createdAt,value
2023-02-22T00:01:51.372Z,65.64
2023-02-22T00:04:54.463Z,65.16
2023-02-22T00:07:57.058Z,65.79
2023-02-22T00:11:02.886Z,66.26
2023-02-22T00:14:12.735Z,66.32
2023-02-22T00:17:16.408Z,66.71
2023-02-22T00:20:20.202Z,66.53
2023-02-22T00:23:23.455Z,66.32
2023-02-22T00:26:26.042Z,66.89
2023-02-22T00:29:29.015Z,66.58
2023-02-22T00:32:31.404Z,66.57
2023-02-22T00:35:34.322Z,66.48
2023-02-22T00:38:36.679Z,66.74
2023-02-22T00:41:39.259Z,66.56
2023-02-22T00:44:41.521Z,66.69
2023-02-22T00:47:43.774Z,66.85
2023-02-22T00:50:48.688Z,67.08
2023-02-22T00:53:50.724Z,66.77
2023-02-22T00:56:52.960Z,67.45
2023-02-22T00:59:55.444Z,67.15
2023-02-22T01:02:59.031Z,67.16
2023-02-22T01:06:03.815Z,68.20
2023-02-22T01:09:08.244Z,67.65
2023-02-22T01:12:10.612Z,68.52
2023-02-22T01:15:16.950Z,68.56
2023-02-22T01:18:22.797Z,67.90
2023-02-22T01:21:24.917Z,68.28
2023-02-22T01:24:27.694Z,68.12
2023-02-22T01:27:31.722Z,66.95
2023-02-22T01:30:36.953Z,67.45
2023-02-22T01:33:41.146Z,67.13
2023-02-22T01:36:46.685Z,67.13
2023-02-22T01:39:48.897Z,67.09
2023-02-22T01:42:58.415Z,67.05
2023-02-22T01:46:03.354Z,66.89
2023-02-22T01:49:06.952Z,67.35
2023-02-22T01:52:12.352Z,67.48
2023-02-22T01:55:14.738Z,67.25
2023-02-22T01:58:19.110Z,67.66
2023-02-22T02:01:23.409Z,68.24
2023-02-22T02:04:27.199Z,68.14
2023-02-22T02:07:32.533Z,68.29
2023-02-22T02:10:35.236Z,67.62
2023-02-22T02:13:37.901Z,67.25
2023-02-22T02:16:49.976Z,67.14
2023-02-22T02:20:17.774Z,67.21
2023-02-22T02:23:57.327Z,67.39
2023-02-22T02:27:11.516Z,67.14
2023-02-22T02:30:39.777Z,66.60
2023-02-22T02:34:02.809Z,67.17
2023-02-22T02:37:15.440Z,67.84
2023-02-22T02:40:25.124Z,68.05
2023-02-22T02:43:39.240Z,68.04
2023-02-22T02:46:53.368Z,68.33
2023-02-22T02:50:02.934Z,67.49
2023-02-22T02:53:08.826Z,67.82
2023-02-22T02:56:11.082Z,68.83
2023-02-22T02:59:29.925Z,68.72
2023-02-22T03:03:00.763Z,68.79
2023-02-22T03:06:05.436Z,68.79
2023-02-22T03:09:14.160Z,69.03
2023-02-22T03:12:50.083Z,68.77
2023-02-22T03:16:32.468Z,69.14
2023-02-22T03:19:46.206Z,69.53
2023-02-22T03:23:04.688Z,69.51
2023-02-22T03:26:15.347Z,69.08
2023-02-22T03:29:20.853Z,69.20
2023-02-22T03:32:28.988Z,68.67
2023-02-22T03:35:35.724Z,69.11
2023-02-22T03:38:40.410Z,68.76
2023-02-22T03:41:48.713Z,67.94
2023-02-22T03:44:55.794Z,68.23
2023-02-22T03:48:15.625Z,68.10
2023-02-22T03:51:19.076Z,68.50
2023-02-22T03:54:22.311Z,68.30
2023-02-22T03:57:35.609Z,68.13
2023-02-22T04:00:44.635Z,68.67
2023-02-22T04:03:49.038Z,68.66
2023-02-22T04:06:52.189Z,67.83
2023-02-22T04:09:54.555Z,67.78
2023-02-22T04:12:57.739Z,68.00
2023-02-22T04:15:59.950Z,68.14
2023-02-22T04:19:02.150Z,67.71
2023-02-22T04:22:04.326Z,67.62
2023-02-22T04:25:08.096Z,67.93
2023-02-22T04:28:11.159Z,67.99
2023-02-22T04:31:13.663Z,68.22
2023-02-22T04:34:17.125Z,68.17
2023-02-22T04:37:20.368Z,69.26
2023-02-22T04:40:22.936Z,69.38
2023-02-22T04:43:25.592Z,69.68
2023-02-22T04:46:31.749Z,69.97
2023-02-22T04:49:34.355Z,70.02
2023-02-22T04:52:36.589Z,69.85
2023-02-22T04:55:38.548Z,70.22
2023-02-22T04:58:40.908Z,69.46
2023-02-22T05:01:43.053Z,69.62
2023-02-22T05:04:45.573Z,69.58
2023-02-22T05:07:49.618Z,69.04
2023-02-22T05:10:52.076Z,69.64
2023-02-22T05:13:54.504Z,69.27
2023-02-22T05:17:00.361Z,69.52
2023-02-22T05:20:04.658Z,69.61
2023-02-22T05:23:07.651Z,69.68
2023-02-22T05:26:11.658Z,69.15
2023-02-22T05:29:15.124Z,70.21
2023-02-22T05:32:17.497Z,70.60
2023-02-22T05:35:24.209Z,69.90
2023-02-22T05:38:28.121Z,70.08
2023-02-22T05:41:30.507Z,70.38
2023-02-22T05:44:33.247Z,70.41
2023-02-22T05:47:35.484Z,70.50
2023-02-22T05:50:38.410Z,70.69
2023-02-22T05:53:40.508Z,71.16
2023-02-22T05:56:42.884Z,71.01
2023-02-22T05:59:45.026Z,71.20
2023-02-22T06:02:47.399Z,71.03
2023-02-22T06:05:49.820Z,70.79
2023-02-22T06:08:52.617Z,70.35
2023-02-22T06:11:55.406Z,70.27
2023-02-22T06:14:57.730Z,70.46
2023-02-22T06:18:02.331Z,69.68
2023-02-22T06:21:08.835Z,69.65
2023-02-22T06:24:11.565Z,69.00
2023-02-22T06:27:19.450Z,68.53
2023-02-22T06:30:25.870Z,68.83
2023-02-22T06:33:29.184Z,68.75
2023-02-22T06:36:31.782Z,69.69
2023-02-22T06:39:34.004Z,68.96
2023-02-22T06:42:36.460Z,69.31
2023-02-22T06:45:38.711Z,67.92
2023-02-22T06:48:41.201Z,68.06
2023-02-22T06:51:44.294Z,67.69
2023-02-22T06:54:46.410Z,67.79
2023-02-22T06:57:48.909Z,67.90
2023-02-22T07:00:51.535Z,68.19
2023-02-22T07:03:53.808Z,67.71
2023-02-22T07:06:58.082Z,66.66
2023-02-22T07:10:00.556Z,66.99
2023-02-22T07:13:04.305Z,67.16
2023-02-22T07:16:07.059Z,66.76
2023-02-22T07:19:09.474Z,66.96
2023-02-22T07:22:11.523Z,67.67
2023-02-22T07:25:14.392Z,67.76
2023-02-22T07:28:16.664Z,67.77
2023-02-22T07:31:18.911Z,67.67
2023-02-22T07:34:22.661Z,67.22
2023-02-22T07:37:24.876Z,67.44
2023-02-22T07:40:30.962Z,67.18
2023-02-22T07:43:33.578Z,67.29
2023-02-22T07:46:35.720Z,66.18
2023-02-22T07:49:38.481Z,66.76
2023-02-22T07:52:41.255Z,67.14
2023-02-22T07:55:44.924Z,66.69
2023-02-22T07:58:48.139Z,65.51
2023-02-22T08:01:52.017Z,65.57
2023-02-22T08:04:54.775Z,65.13
2023-02-22T08:07:57.257Z,64.57
2023-02-22T08:11:02.469Z,65.81
2023-02-22T08:14:04.718Z,65.05
2023-02-22T08:17:08.702Z,65.46
2023-02-22T08:20:14.664Z,64.50
2023-02-22T08:23:22.865Z,65.12
2023-02-22T08:26:31.241Z,64.20
2023-02-22T08:29:39.769Z,63.63
2023-02-22T08:32:53.178Z,63.55
2023-02-22T08:35:59.502Z,64.20
2023-02-22T08:39:04.329Z,63.12
2023-02-22T08:42:09.354Z,63.32
2023-02-22T08:45:16.709Z,62.02
2023-02-22T08:48:22.750Z,61.26
2023-02-22T08:51:27.748Z,60.59
2023-02-22T08:54:30.843Z,59.56
2023-02-22T08:57:33.824Z,59.82
2023-02-22T09:00:42.318Z,59.31
2023-02-22T09:03:51.999Z,59.36
2023-02-22T09:06:55.038Z,59.25
2023-02-22T09:09:57.980Z,59.60
2023-02-22T09:13:04.203Z,58.58
2023-02-22T09:16:10.314Z,58.74
2023-02-22T09:19:12.826Z,59.44
2023-02-22T09:22:15.082Z,60.05
2023-02-22T09:25:18.704Z,59.58
2023-02-22T09:28:21.174Z,59.58
2023-02-22T09:31:24.450Z,60.09
2023-02-22T09:34:29.788Z,60.26
2023-02-22T09:37:32.146Z,59.97
2023-02-22T09:40:42.687Z,60.39
2023-02-22T09:43:47.506Z,60.56
2023-02-22T09:46:51.188Z,60.29
2023-02-22T09:50:16.316Z,60.18
2023-02-22T09:53:32.399Z,60.02
2023-02-22T09:56:35.713Z,60.11
2023-02-22T09:59:46.079Z,59.64
2023-02-22T10:03:16.584Z,59.33
2023-02-22T10:06:24.231Z,59.80
2023-02-22T10:09:47.057Z,59.50
2023-02-22T10:13:11.557Z,59.12
2023-02-22T10:16:58.577Z,59.19
2023-02-22T10:20:20.477Z,59.04
2023-02-22T10:24:07.921Z,59.70
2023-02-22T10:27:25.263Z,59.61
2023-02-22T10:30:37.750Z,60.41
2023-02-22T10:33:51.006Z,60.66
2023-02-22T10:37:29.157Z,59.35
2023-02-22T10:40:32.851Z,59.29
2023-02-22T10:43:45.040Z,60.09
2023-02-22T10:46:49.127Z,59.39
2023-02-22T10:50:01.235Z,58.77
2023-02-22T10:53:06.954Z,58.56
2023-02-22T10:56:26.521Z,58.50
2023-02-22T10:59:39.422Z,59.02
2023-02-22T11:02:54.128Z,59.32
2023-02-22T11:06:00.524Z,58.55
2023-02-22T11:09:19.525Z,58.91
2023-02-22T11:12:35.521Z,58.95
2023-02-22T11:15:38.245Z,59.45
2023-02-22T11:18:46.335Z,59.82
2023-02-22T11:22:18.831Z,59.53
2023-02-22T11:25:28.136Z,58.94
2023-02-22T11:28:33.419Z,58.65
2023-02-22T11:31:43.720Z,57.96
2023-02-22T11:35:03.628Z,58.62
2023-02-22T11:38:22.001Z,58.50
2023-02-22T11:41:30.851Z,58.43
2023-02-22T11:44:35.874Z,58.41
2023-02-22T11:47:54.832Z,58.62
2023-02-22T11:51:49.773Z,58.64
2023-02-22T11:55:10.263Z,59.14
2023-02-22T11:58:51.456Z,59.17
2023-02-22T12:02:05.616Z,59.42
2023-02-22T12:05:12.858Z,59.58
2023-02-22T12:08:28.153Z,60.34
2023-02-22T12:12:03.272Z,59.31
2023-02-22T12:15:21.658Z,59.04
2023-02-22T12:18:57.717Z,60.06
2023-02-22T12:22:08.549Z,60.00
2023-02-22T12:25:32.895Z,59.39
2023-02-22T12:28:47.964Z,59.69
2023-02-22T12:31:57.939Z,59.93
2023-02-22T12:35:13.843Z,60.06
2023-02-22T12:38:35.953Z,59.34
2023-02-22T12:41:54.284Z,59.26
2023-02-22T12:45:19.984Z,58.93
2023-02-22T12:48:33.319Z,58.91
2023-02-22T12:52:20.862Z,59.59
2023-02-22T12:55:31.831Z,59.46
2023-02-22T12:58:58.118Z,58.95
2023-02-22T13:02:20.797Z,59.05
2023-02-22T13:05:23.958Z,59.22
2023-02-22T13:08:55.540Z,58.85
2023-02-22T13:12:13.438Z,58.59
2023-02-22T13:15:42.829Z,59.43
2023-02-22T13:19:16.625Z,59.85
2023-02-22T13:22:53.091Z,58.93
2023-02-22T13:26:11.527Z,59.74
2023-02-22T13:29:45.759Z,59.73
2023-02-22T13:33:17.312Z,60.08
2023-02-22T13:36:39.478Z,59.95
2023-02-22T13:40:03.704Z,59.96
2023-02-22T13:43:36.942Z,59.58
2023-02-22T13:47:14.915Z,60.09
2023-02-22T13:51:13.297Z,60.50
2023-02-22T13:54:28.828Z,60.75
2023-02-22T13:57:51.873Z,60.00
2023-02-22T14:01:06.369Z,60.31
2023-02-22T14:04:30.712Z,60.32
2023-02-22T14:07:53.524Z,60.63
2023-02-22T14:10:58.164Z,61.79
2023-02-22T14:14:04.199Z,60.51
2023-02-22T14:17:23.458Z,60.68
2023-02-22T14:20:40.343Z,60.75
2023-02-22T14:23:48.125Z,60.97
2023-02-22T14:27:03.965Z,61.88
2023-02-22T14:30:46.934Z,62.27
2023-02-22T14:34:03.668Z,62.39
2023-02-22T14:37:29.751Z,61.89
2023-02-22T14:40:37.157Z,61.72
2023-02-22T14:43:39.891Z,61.30
2023-02-22T14:46:50.649Z,62.41
2023-02-22T14:50:02.479Z,62.20
2023-02-22T14:53:14.494Z,62.91
2023-02-22T14:56:26.220Z,62.91
2023-02-22T14:59:30.992Z,62.47
2023-02-22T15:02:43.046Z,61.30
2023-02-22T15:05:46.376Z,61.66
2023-02-22T15:09:09.657Z,61.82
2023-02-22T15:12:23.934Z,61.95
2023-02-22T15:15:31.185Z,62.47
2023-02-22T15:18:46.466Z,62.40
2023-02-22T15:21:50.436Z,62.58
2023-02-22T15:25:10.146Z,63.17
2023-02-22T15:28:14.732Z,63.25
2023-02-22T15:31:45.718Z,62.89
2023-02-22T15:34:57.078Z,62.56
2023-02-22T15:38:23.949Z,63.24
2023-02-22T15:41:35.561Z,62.48
2023-02-22T15:44:46.090Z,62.60
2023-02-22T15:48:14.691Z,62.62
2023-02-22T15:51:20.936Z,62.56
2023-02-22T15:54:46.688Z,63.97
2023-02-22T15:58:31.114Z,63.97
2023-02-22T16:01:44.547Z,63.22
2023-02-22T16:04:59.699Z,63.58
2023-02-22T16:08:19.269Z,63.70
2023-02-22T16:11:52.035Z,64.49
2023-02-22T16:15:03.798Z,65.18
2023-02-22T16:18:32.711Z,64.87
2023-02-22T16:22:03.218Z,65.12
2023-02-22T16:25:21.515Z,65.77
2023-02-22T16:28:34.786Z,66.19
2023-02-22T16:31:47.326Z,66.65
2023-02-22T16:34:58.537Z,66.43
2023-02-22T16:38:18.782Z,66.76
2023-02-22T16:41:36.458Z,67.22
2023-02-22T16:44:49.980Z,66.75
2023-02-22T16:48:13.561Z,67.37
2023-02-22T16:51:46.217Z,67.17
2023-02-22T16:54:49.696Z,67.91
2023-02-22T16:58:20.800Z,67.59
2023-02-22T17:01:43.582Z,67.88
2023-02-22T17:05:44.668Z,67.97
2023-02-22T17:09:02.947Z,67.46
2023-02-22T17:12:21.250Z,67.89
2023-02-22T17:15:43.296Z,68.19
2023-02-22T17:18:46.560Z,68.58
2023-02-22T17:21:51.276Z,68.59
2023-02-22T17:24:55.105Z,69.28
2023-02-22T17:28:01.867Z,69.10
2023-02-22T17:31:08.100Z,69.76
2023-02-22T17:34:13.971Z,69.82
2023-02-22T17:37:19.436Z,70.07
2023-02-22T17:40:24.285Z,70.19
2023-02-22T17:43:30.304Z,69.64
2023-02-22T17:46:33.150Z,69.97
2023-02-22T17:50:10.122Z,70.85
2023-02-22T17:53:14.696Z,70.26
2023-02-22T17:56:20.510Z,70.53
2023-02-22T17:59:24.539Z,71.18
2023-02-22T18:02:34.913Z,71.47
2023-02-22T18:05:48.807Z,70.40
2023-02-22T18:08:56.251Z,69.18
2023-02-22T18:11:59.220Z,69.19
2023-02-22T18:15:04.005Z,68.19
2023-02-22T18:18:07.450Z,67.82
2023-02-22T18:21:15.436Z,66.96
2023-02-22T18:24:18.862Z,65.68
2023-02-22T18:27:32.033Z,65.63
2023-02-22T18:30:37.617Z,64.84
2023-02-22T18:33:44.223Z,64.44
2023-02-22T18:36:46.878Z,63.59
2023-02-22T18:39:49.883Z,63.74
2023-02-22T18:42:52.942Z,63.16
2023-02-22T18:46:13.717Z,63.15
2023-02-22T18:49:28.338Z,62.08
2023-02-22T18:52:31.917Z,61.73
2023-02-22T18:55:39.225Z,62.04
2023-02-22T18:58:43.698Z,61.55
2023-02-22T19:01:49.427Z,61.51
2023-02-22T19:04:52.665Z,61.43
2023-02-22T19:07:57.218Z,61.22
2023-02-22T19:11:05.149Z,60.58
2023-02-22T19:14:09.875Z,61.05
2023-02-22T19:17:16.313Z,60.64
2023-02-22T19:20:19.742Z,59.73
2023-02-22T19:23:22.112Z,59.90
2023-02-22T19:26:28.143Z,60.14
2023-02-22T19:29:32.208Z,59.43
2023-02-22T19:32:36.688Z,58.86
2023-02-22T19:35:48.595Z,58.55
2023-02-22T19:38:52.328Z,59.64
2023-02-22T19:41:58.914Z,60.05
2023-02-22T19:45:04.667Z,59.82
2023-02-22T19:48:07.418Z,59.25
2023-02-22T19:51:13.417Z,59.78
2023-02-22T19:54:21.584Z,59.26
2023-02-22T19:57:24.871Z,58.38
2023-02-22T20:00:29.740Z,59.15
2023-02-22T20:03:35.436Z,59.05
2023-02-22T20:06:42.090Z,59.04
2023-02-22T20:09:44.775Z,59.25
2023-02-22T20:12:49.088Z,59.54
2023-02-22T20:15:51.829Z,58.99
2023-02-22T20:18:55.479Z,58.56
2023-02-22T20:22:00.637Z,58.65
2023-02-22T20:25:03.401Z,59.17
2023-02-22T20:28:07.775Z,58.70
2023-02-22T20:31:13.959Z,59.29
2023-02-22T20:34:16.840Z,59.44
2023-02-22T20:37:19.539Z,58.14
2023-02-22T20:40:21.885Z,58.08
2023-02-22T20:43:24.669Z,58.73
2023-02-22T20:46:37.645Z,58.58
2023-02-22T20:49:41.133Z,58.70
2023-02-22T20:52:52.098Z,59.17
2023-02-22T20:55:57.600Z,59.29
2023-02-22T20:59:02.625Z,58.91
2023-02-22T21:02:05.718Z,58.33
2023-02-22T21:05:11.958Z,58.29
2023-02-22T21:08:16.025Z,58.76
2023-02-22T21:11:19.138Z,58.33
2023-02-22T21:14:24.538Z,58.85
2023-02-22T21:17:29.779Z,58.68
2023-02-22T21:20:33.692Z,58.39
2023-02-22T21:23:52.954Z,58.87
2023-02-22T21:26:58.900Z,58.55
2023-02-22T21:30:01.612Z,57.64
2023-02-22T21:33:04.296Z,57.92
2023-02-22T21:36:14.933Z,57.68
2023-02-22T21:39:20.984Z,57.06
2023-02-22T21:42:23.530Z,57.76
2023-02-22T21:45:26.602Z,57.28
2023-02-22T21:48:34.998Z,57.70
2023-02-22T21:51:40.549Z,58.50
2023-02-22T21:54:43.311Z,57.92
2023-02-22T21:57:45.981Z,57.90
2023-02-22T22:00:48.836Z,57.77
2023-02-22T22:03:51.322Z,57.70
2023-02-22T22:06:56.732Z,58.21
2023-02-22T22:09:59.311Z,57.89
2023-02-22T22:13:01.746Z,58.25
2023-02-22T22:16:10.492Z,58.66
2023-02-22T22:19:13.325Z,58.45
2023-02-22T22:22:15.797Z,58.37
2023-02-22T22:25:18.537Z,57.77
2023-02-22T22:28:22.668Z,57.54
2023-02-22T22:31:27.056Z,57.85
2023-02-22T22:34:29.851Z,58.78
2023-02-22T22:37:32.373Z,58.48
2023-02-22T22:40:39.041Z,58.54
2023-02-22T22:43:43.046Z,57.83
2023-02-22T22:46:49.389Z,58.69
2023-02-22T22:49:53.073Z,58.21
2023-02-22T22:52:58.297Z,57.69
2023-02-22T22:56:08.012Z,58.37
2023-02-22T22:59:10.894Z,58.41
2023-02-22T23:02:13.103Z,58.50
2023-02-22T23:05:17.568Z,58.75
2023-02-22T23:08:26.820Z,58.43
2023-02-22T23:11:33.761Z,58.56
2023-02-22T23:14:38.807Z,58.91
2023-02-22T23:17:42.610Z,58.40
2023-02-22T23:20:45.363Z,58.97
2023-02-22T23:23:52.170Z,58.41
2023-02-22T23:27:00.141Z,58.66
2023-02-22T23:30:03.940Z,58.99
2023-02-22T23:33:08.304Z,59.25
2023-02-22T23:36:12.660Z,59.19
2023-02-22T23:39:18.067Z,58.74
2023-02-22T23:42:23.332Z,59.11
2023-02-22T23:45:28.439Z,58.78
2023-02-22T23:48:36.225Z,58.05
2023-02-22T23:51:39.695Z,58.52
2023-02-22T23:54:47.355Z,58.40
2023-02-22T23:57:49.738Z,58.29
